SBKP/CPQ METAR and TAF weather

Enter ICAO airport designator
Station Type Date Time Source
SBKP METAR 2023/02/05 13:00 UTC NOAA

SBKP 051300Z 33009KT 9999 BKN019 BKN070 26/21 Q1017


Station Type Date Time Source
SBKP Decoded METAR 2023/02/05 13:00 UTC NOAA

Campinas Aeroporto , Brazil (SBKP) 23-00S 047-08W 661M
Feb 05, 2023 - 08:00 AM EST / 2023.02.05 1300 UTC
Wind: from the NNW (330 degrees) at 10 MPH (9 KT):0
Visibility: greater than 7 mile(s):0
Sky conditions: mostly cloudy
Temperature: 78 F (26 C)
Dew Point: 69 F (21 C)
Relative Humidity: 73%
Pressure (altimeter): 30.03 in. Hg (1017 hPa)
ob: SBKP 051300Z 33009KT 9999 BKN019 BKN070 26/21 Q1017
cycle: 13

Station Type Date Time Source
SBKP TAF 2023/02/05 13:18 UTC NOAA

TAF
AMD TAF
AMD SBKP 051215Z 0513/0612 34010KT 9999 BKN015 TX28/0517Z TN20/0609Z
BECMG 0513/0515 BKN030
BECMG 0517/0519 SCT030 FEW035TCU
TEMPO 0520/0524 26010KT TSRA BKN025 FEW040CB PROB30
TEMPO 0601/0606 8000 RA FEW006 BKN030
BECMG 0606/0608 SCT020
RMK PGH

Example: see airport list